Terminal Aerodrome Forecast
Issued by NWS

Home | Current Version | Previous Version | Text Only | Print | Product List | Glossary On
Versions: 1 2 3 4 5 6 7 8 9 10 11 12 13 14 15 16 17 18 19
000
FTUS42 KMLB 181100
TAFTIX
TAF
KTIX 181135Z 1812/1912 09010KT P6SM VCSH BKN020
      TEMPO 1812/1814 3SM SHRA SCT010 OVC020
     FM181400 11012G18KT P6SM VCSH SCT015 BKN035 OVC150
     FM181900 14011G20KT P6SM SHRA VCTS SCT020 BKN040CB OVC060
      TEMPO 1821/1823 4SM TSRA SCT020 BKN030CB
     FM190500 16008KT P6SM VCSH BKN030 OVC050=

USA.gov is the U.S. government's official web portal to all federal, state and local government web resources and services.